createdAt,value
2019-02-28T00:01:00.578Z,8.30
2019-02-28T00:03:29.184Z,8.30
2019-02-28T00:05:57.784Z,8.20
2019-02-28T00:08:26.383Z,8.20
2019-02-28T00:10:54.961Z,8.20
2019-02-28T00:13:23.581Z,8.20
2019-02-28T00:15:52.185Z,8.20
2019-02-28T00:18:20.756Z,8.00
2019-02-28T00:20:49.312Z,8.00
2019-02-28T00:23:37.241Z,8.00
2019-02-28T00:26:25.178Z,8.00
2019-02-28T00:29:13.075Z,8.00
2019-02-28T00:32:01.023Z,7.90
2019-02-28T00:34:48.909Z,8.00
2019-02-28T00:37:36.859Z,8.00
2019-02-28T00:40:24.795Z,7.80
2019-02-28T00:43:13.078Z,7.70
2019-02-28T00:46:01.020Z,7.70
2019-02-28T00:48:48.913Z,7.70
2019-02-28T00:51:36.852Z,7.70
2019-02-28T00:54:24.761Z,7.60
2019-02-28T00:57:12.693Z,7.50
2019-02-28T01:00:04.874Z,7.50
2019-02-28T01:02:53.542Z,7.50
2019-02-28T01:05:39.889Z,7.50
2019-02-28T01:08:27.821Z,7.40
2019-02-28T01:11:15.723Z,7.50
2019-02-28T01:14:03.753Z,7.50
2019-02-28T01:16:53.009Z,7.40
2019-02-28T01:19:42.298Z,7.30
2019-02-28T01:22:30.936Z,7.30
2019-02-28T01:25:11.516Z,7.20
2019-02-28T01:27:52.523Z,7.20
2019-02-28T01:30:33.755Z,7.20
2019-02-28T01:33:14.509Z,7.10
2019-02-28T01:35:55.556Z,7.10
2019-02-28T01:38:36.795Z,7.00
2019-02-28T01:41:17.849Z,7.00
2019-02-28T01:44:01.662Z,7.00
2019-02-28T01:46:41.670Z,7.00
2019-02-28T01:49:25.949Z,7.10
2019-02-28T01:52:09.546Z,7.00
2019-02-28T01:54:35.285Z,7.00
2019-02-28T01:57:04.767Z,7.00
2019-02-28T01:59:53.107Z,6.90
2019-02-28T02:02:42.282Z,6.90
2019-02-28T02:05:30.212Z,6.90
2019-02-28T02:08:18.116Z,6.90
2019-02-28T02:11:06.121Z,6.80
2019-02-28T02:13:54.608Z,6.80
2019-02-28T02:16:42.540Z,6.80
2019-02-28T02:19:30.542Z,6.90
2019-02-28T02:22:18.613Z,6.90
2019-02-28T02:25:03.167Z,6.80
2019-02-28T02:27:42.137Z,6.70
2019-02-28T02:30:22.545Z,6.70
2019-02-28T02:33:03.562Z,6.60
2019-02-28T02:35:44.532Z,6.50
2019-02-28T02:38:25.004Z,6.40
2019-02-28T02:41:06.296Z,6.30
2019-02-28T02:43:47.413Z,6.20
2019-02-28T02:46:27.845Z,6.20
2019-02-28T02:49:08.879Z,6.10
2019-02-28T02:51:50.741Z,6.00
2019-02-28T02:54:20.264Z,6.00
2019-02-28T02:56:48.877Z,6.00
2019-02-28T02:59:17.439Z,5.90
2019-02-28T03:01:46.039Z,6.00
2019-02-28T03:04:21.454Z,6.00
2019-02-28T03:06:45.904Z,6.10
2019-02-28T03:09:15.246Z,6.10
2019-02-28T03:11:43.852Z,6.20
2019-02-28T03:14:16.357Z,6.20
2019-02-28T03:16:42.647Z,6.20
2019-02-28T03:19:33.533Z,6.20
2019-02-28T03:22:20.111Z,6.20
2019-02-28T03:25:00.842Z,6.30
2019-02-28T03:27:41.182Z,6.20
2019-02-28T03:30:28.841Z,6.20
2019-02-28T03:33:04.713Z,6.20
2019-02-28T03:35:48.575Z,6.20
2019-02-28T03:38:29.117Z,6.20
2019-02-28T03:41:16.071Z,6.20
2019-02-28T03:43:51.828Z,6.20
2019-02-28T03:46:32.802Z,6.20
2019-02-28T03:49:13.732Z,6.20
2019-02-28T03:51:54.384Z,6.10
2019-02-28T03:54:35.001Z,6.10
2019-02-28T03:57:16.164Z,6.10
2019-02-28T03:59:57.082Z,6.10
2019-02-28T04:02:37.909Z,6.10
2019-02-28T04:05:26.482Z,6.10
2019-02-28T04:08:02.385Z,6.10
2019-02-28T04:10:43.533Z,6.10
2019-02-28T04:13:12.096Z,6.00
2019-02-28T04:16:08.495Z,6.00
2019-02-28T04:18:49.581Z,6.00
2019-02-28T04:21:37.544Z,6.10
2019-02-28T04:24:18.172Z,5.90
2019-02-28T04:27:06.041Z,5.90
2019-02-28T04:29:41.296Z,5.80
2019-02-28T04:32:09.889Z,5.90
2019-02-28T04:34:57.816Z,5.80
2019-02-28T04:37:47.299Z,5.80
2019-02-28T04:40:15.939Z,5.70
2019-02-28T04:42:44.579Z,5.70
2019-02-28T04:45:34.230Z,5.70
2019-02-28T04:48:34.138Z,5.70
2019-02-28T04:51:11.967Z,5.70
2019-02-28T04:53:40.579Z,5.70
2019-02-28T04:56:28.477Z,5.70
2019-02-28T04:59:16.418Z,5.60
2019-02-28T05:02:04.351Z,5.40
2019-02-28T05:04:52.288Z,5.40
2019-02-28T05:07:40.191Z,5.40
2019-02-28T05:10:28.121Z,5.40
2019-02-28T05:13:16.037Z,5.40
2019-02-28T05:16:03.956Z,5.30
2019-02-28T05:18:51.872Z,5.20
2019-02-28T05:24:33.344Z,5.20
2019-02-28T05:27:13.783Z,5.30
2019-02-28T05:29:54.085Z,5.30
2019-02-28T05:32:35.569Z,5.30
2019-02-28T05:35:05.659Z,5.30
2019-02-28T05:37:34.224Z,5.40
2019-02-28T05:40:06.090Z,5.40
2019-02-28T05:42:33.200Z,5.50
2019-02-28T05:45:01.759Z,5.50
2019-02-28T05:47:32.473Z,5.50
2019-02-28T05:50:19.949Z,5.40
2019-02-28T05:53:09.315Z,5.40
2019-02-28T05:55:59.893Z,5.40
2019-02-28T05:58:49.376Z,5.40
2019-02-28T06:04:30.120Z,5.50
2019-02-28T06:07:18.048Z,5.50
2019-02-28T06:10:25.298Z,5.50
2019-02-28T06:13:15.346Z,5.40
2019-02-28T06:16:02.795Z,5.40
2019-02-28T06:18:50.957Z,5.40
2019-02-28T06:21:38.896Z,5.50
2019-02-28T06:24:26.816Z,5.60
2019-02-28T06:27:14.780Z,5.60
2019-02-28T06:30:02.681Z,5.70
2019-02-28T06:32:50.616Z,5.70
2019-02-28T06:35:38.548Z,5.60
2019-02-28T06:38:26.490Z,5.50
2019-02-28T06:41:14.416Z,5.60
2019-02-28T06:44:02.332Z,5.60
2019-02-28T06:46:50.231Z,5.70
2019-02-28T06:49:18.830Z,5.70
2019-02-28T06:52:06.733Z,5.80
2019-02-28T06:54:54.660Z,5.80
2019-02-28T06:57:23.232Z,5.90
2019-02-28T07:00:31.898Z,6.00
2019-02-28T07:03:19.798Z,6.00
2019-02-28T07:06:07.747Z,6.00
2019-02-28T07:08:55.640Z,6.00
2019-02-28T07:11:43.584Z,5.90
2019-02-28T07:14:31.609Z,5.90
2019-02-28T07:17:19.550Z,5.90
2019-02-28T07:20:28.192Z,5.90
2019-02-28T07:23:16.097Z,5.90
2019-02-28T07:26:04.036Z,5.90
2019-02-28T07:28:45.309Z,5.90
2019-02-28T07:31:26.646Z,5.90
2019-02-28T07:34:07.205Z,5.90
2019-02-28T07:36:48.515Z,6.00
2019-02-28T07:39:29.823Z,6.00
2019-02-28T07:42:10.251Z,6.00
2019-02-28T07:44:53.695Z,6.00
2019-02-28T07:47:34.008Z,6.10
2019-02-28T07:50:15.258Z,6.10
2019-02-28T07:52:56.383Z,6.10
2019-02-28T07:55:37.565Z,6.20
2019-02-28T07:58:18.424Z,6.20
2019-02-28T08:00:59.272Z,6.30
2019-02-28T08:03:43.392Z,6.30
2019-02-28T08:06:22.890Z,6.30
2019-02-28T08:09:04.878Z,6.30
2019-02-28T08:11:46.237Z,6.30
2019-02-28T08:14:26.718Z,6.40
2019-02-28T08:17:09.029Z,6.40
2019-02-28T08:19:49.784Z,6.40
2019-02-28T08:22:31.353Z,6.40
2019-02-28T08:25:12.567Z,6.50
2019-02-28T08:27:59.099Z,6.50
2019-02-28T08:30:35.980Z,6.50
2019-02-28T08:33:17.130Z,6.60
2019-02-28T08:35:57.887Z,6.60
2019-02-28T08:38:38.273Z,6.60
2019-02-28T08:41:22.462Z,6.60
2019-02-28T08:44:01.764Z,6.60
2019-02-28T08:46:43.518Z,6.60
2019-02-28T08:49:26.375Z,6.60
2019-02-28T08:52:07.006Z,6.60
2019-02-28T08:54:47.969Z,6.60
2019-02-28T08:57:29.176Z,6.60
2019-02-28T09:00:10.485Z,6.70
2019-02-28T09:02:52.940Z,6.80
2019-02-28T09:05:34.288Z,6.70
2019-02-28T09:08:14.829Z,6.70
2019-02-28T09:10:55.981Z,6.70
2019-02-28T09:13:36.524Z,6.70
2019-02-28T09:16:17.485Z,6.70
2019-02-28T09:19:00.948Z,6.70
2019-02-28T09:21:41.250Z,6.60
2019-02-28T09:24:22.269Z,6.60
2019-02-28T09:27:04.075Z,6.60
2019-02-28T09:29:45.370Z,6.70
2019-02-28T09:32:26.556Z,6.70
2019-02-28T09:34:55.140Z,6.70
2019-02-28T09:37:23.708Z,6.70
2019-02-28T09:40:30.968Z,6.70
2019-02-28T09:43:18.968Z,6.70
2019-02-28T09:46:09.115Z,6.80
2019-02-28T09:48:59.897Z,6.80
2019-02-28T09:51:47.554Z,6.80
2019-02-28T09:54:35.486Z,6.80
2019-02-28T09:57:23.376Z,6.80
2019-02-28T10:00:32.071Z,6.90
2019-02-28T10:03:19.968Z,6.90
2019-02-28T10:06:07.917Z,6.90
2019-02-28T10:08:55.832Z,7.00
2019-02-28T10:11:24.427Z,7.00
2019-02-28T10:13:54.102Z,7.00
2019-02-28T10:16:22.763Z,7.00
2019-02-28T10:18:51.349Z,7.00
2019-02-28T10:21:19.940Z,7.00
2019-02-28T10:23:48.525Z,7.00
2019-02-28T10:26:17.348Z,7.10
2019-02-28T10:28:46.379Z,7.10
2019-02-28T10:31:15.449Z,7.10
2019-02-28T10:33:44.113Z,7.20
2019-02-28T10:36:13.760Z,7.20
2019-02-28T10:38:42.395Z,7.20
2019-02-28T10:41:10.988Z,7.20
2019-02-28T10:43:39.540Z,7.20
2019-02-28T10:46:08.103Z,7.20
2019-02-28T10:48:41.844Z,7.20
2019-02-28T10:51:14.094Z,7.30
2019-02-28T10:53:39.277Z,7.30
2019-02-28T10:56:07.472Z,7.20
2019-02-28T10:58:55.404Z,7.30
2019-02-28T11:01:43.300Z,7.20
2019-02-28T11:04:31.227Z,7.20
2019-02-28T11:07:19.136Z,7.20
2019-02-28T11:10:28.888Z,7.20
2019-02-28T11:13:38.098Z,7.20
2019-02-28T11:16:26.062Z,7.20
2019-02-28T11:22:14.720Z,7.30
2019-02-28T11:27:55.990Z,7.50
2019-02-28T11:30:36.640Z,7.50
2019-02-28T11:33:17.521Z,7.50
2019-02-28T11:35:59.142Z,7.50
2019-02-28T11:38:46.905Z,7.40
2019-02-28T11:41:34.810Z,7.40
2019-02-28T11:44:22.812Z,7.50
2019-02-28T11:47:11.160Z,7.50
2019-02-28T11:50:03.777Z,7.50
2019-02-28T11:52:49.883Z,7.50
2019-02-28T11:58:51.305Z,7.50
2019-02-28T12:01:36.653Z,7.50
2019-02-28T12:04:24.584Z,7.50
2019-02-28T12:07:12.483Z,7.50
2019-02-28T12:09:41.077Z,7.50
2019-02-28T12:12:10.429Z,7.50
2019-02-28T12:14:39.688Z,7.50
2019-02-28T12:17:08.361Z,7.50
2019-02-28T12:19:36.916Z,7.50
2019-02-28T12:22:05.595Z,7.40
2019-02-28T12:24:34.135Z,7.40
2019-02-28T12:30:08.420Z,7.40
2019-02-28T12:32:48.981Z,7.30
2019-02-28T12:35:30.233Z,7.30
2019-02-28T12:38:10.869Z,7.30
2019-02-28T12:40:51.556Z,7.30
2019-02-28T12:43:31.833Z,7.40
2019-02-28T12:46:12.617Z,7.40
2019-02-28T12:48:53.126Z,7.40
2019-02-28T12:51:36.541Z,7.50
2019-02-28T12:54:15.922Z,7.40
2019-02-28T12:56:56.721Z,7.40
2019-02-28T12:59:37.186Z,7.50
2019-02-28T13:02:17.837Z,7.50
2019-02-28T13:04:58.215Z,7.60
2019-02-28T13:07:39.054Z,7.60
2019-02-28T13:10:19.653Z,7.70
2019-02-28T13:13:06.385Z,7.80
2019-02-28T13:15:31.213Z,7.90
2019-02-28T13:17:59.856Z,7.90
2019-02-28T13:20:33.497Z,7.90
2019-02-28T13:23:01.223Z,7.90
2019-02-28T13:25:29.800Z,7.80
2019-02-28T13:27:58.425Z,7.90
2019-02-28T13:30:28.031Z,7.90
2019-02-28T13:32:56.852Z,7.90
2019-02-28T13:35:46.708Z,7.90
2019-02-28T13:38:17.400Z,7.80
2019-02-28T13:40:44.752Z,7.70
2019-02-28T13:43:19.678Z,7.70
2019-02-28T13:45:43.151Z,7.70
2019-02-28T13:48:33.922Z,7.80
2019-02-28T13:51:20.622Z,7.90
2019-02-28T13:54:08.587Z,7.90
2019-02-28T13:56:56.460Z,8.00
2019-02-28T13:59:44.397Z,8.00
2019-02-28T14:02:33.799Z,8.00
2019-02-28T14:08:15.264Z,8.00
2019-02-28T14:11:05.786Z,8.00
2019-02-28T14:13:52.736Z,8.00
2019-02-28T14:16:40.732Z,8.00
2019-02-28T14:19:28.631Z,7.80
2019-02-28T14:22:16.564Z,8.00
2019-02-28T14:25:25.208Z,8.00
2019-02-28T14:28:13.154Z,8.00
2019-02-28T14:31:01.058Z,8.00
2019-02-28T14:33:42.306Z,7.90
2019-02-28T14:36:22.712Z,8.00
2019-02-28T14:39:04.685Z,8.30
2019-02-28T14:41:46.672Z,8.50
2019-02-28T14:44:28.037Z,8.70
2019-02-28T14:46:57.261Z,8.90
2019-02-28T14:49:26.263Z,8.90
2019-02-28T14:51:54.861Z,8.70
2019-02-28T14:54:24.680Z,8.60
2019-02-28T14:56:54.086Z,8.40
2019-02-28T14:59:22.717Z,8.40
2019-02-28T15:01:53.198Z,8.30
2019-02-28T15:04:21.505Z,8.20
2019-02-28T15:06:50.097Z,8.20
2019-02-28T15:09:18.801Z,8.10
2019-02-28T15:11:48.197Z,8.00
2019-02-28T15:14:16.820Z,7.90
2019-02-28T15:16:45.455Z,7.90
2019-02-28T15:19:14.048Z,7.90
2019-02-28T15:22:01.948Z,7.90
2019-02-28T15:24:49.901Z,7.90
2019-02-28T15:27:39.029Z,7.80
2019-02-28T15:30:46.737Z,7.90
2019-02-28T15:33:30.154Z,7.90
2019-02-28T15:36:09.721Z,7.80
2019-02-28T15:38:50.474Z,7.80
2019-02-28T15:41:33.872Z,7.80
2019-02-28T15:44:13.817Z,7.70
2019-02-28T15:46:55.754Z,7.70
2019-02-28T15:49:37.452Z,7.70
2019-02-28T15:52:18.216Z,7.70
2019-02-28T15:55:02.012Z,7.60
2019-02-28T15:57:41.488Z,7.60
2019-02-28T16:00:23.138Z,7.60
2019-02-28T16:03:04.324Z,7.60
2019-02-28T16:05:45.100Z,7.60
2019-02-28T16:08:28.249Z,7.60
2019-02-28T16:11:08.673Z,7.60
2019-02-28T16:13:37.402Z,7.60
2019-02-28T16:16:06.157Z,7.60
2019-02-28T16:21:47.097Z,7.50
2019-02-28T16:24:36.722Z,7.50
2019-02-28T16:27:24.620Z,7.50
2019-02-28T16:30:33.593Z,7.40
2019-02-28T16:33:14.578Z,7.40
2019-02-28T16:35:55.264Z,7.40
2019-02-28T16:38:36.160Z,7.40
2019-02-28T16:41:16.834Z,7.40
2019-02-28T16:43:58.655Z,7.40
2019-02-28T16:46:39.907Z,7.40
2019-02-28T16:49:10.594Z,7.40
2019-02-28T16:51:38.783Z,7.40
2019-02-28T16:54:07.356Z,7.40
2019-02-28T16:56:37.481Z,7.40
2019-02-28T16:59:06.280Z,7.30
2019-02-28T17:01:34.925Z,7.30
2019-02-28T17:04:03.657Z,7.30
2019-02-28T17:06:51.556Z,7.30
2019-02-28T17:12:59.558Z,7.30
2019-02-28T17:16:05.913Z,7.20
2019-02-28T17:24:56.198Z,7.10
2019-02-28T17:30:58.354Z,7.10
2019-02-28T17:33:39.676Z,7.20
2019-02-28T17:36:20.605Z,7.20
2019-02-28T17:39:01.763Z,7.20
2019-02-28T17:41:42.276Z,7.20
2019-02-28T17:44:22.927Z,7.10
2019-02-28T17:47:04.103Z,7.10
2019-02-28T17:49:54.936Z,7.20
2019-02-28T17:53:03.628Z,7.20
2019-02-28T17:56:12.270Z,7.20
2019-02-28T17:59:19.541Z,7.10
2019-02-28T18:02:26.828Z,7.10
2019-02-28T18:05:36.511Z,7.00
2019-02-28T18:08:43.224Z,7.00
2019-02-28T18:11:50.484Z,7.00
2019-02-28T18:14:57.732Z,7.00
2019-02-28T18:18:08.846Z,7.00
2019-02-28T18:21:17.485Z,7.00
2019-02-28T18:24:24.216Z,7.00
2019-02-28T18:27:32.796Z,6.90
2019-02-28T18:30:42.657Z,6.90
2019-02-28T18:33:22.707Z,6.90
2019-02-28T18:36:05.147Z,6.90
2019-02-28T18:38:46.053Z,6.80
2019-02-28T18:41:26.502Z,6.80
2019-02-28T18:44:07.763Z,6.80
2019-02-28T18:46:49.009Z,6.80
2019-02-28T18:49:30.205Z,6.80
2019-02-28T18:52:10.747Z,6.70
2019-02-28T18:54:51.306Z,6.60
2019-02-28T18:57:31.956Z,6.70
2019-02-28T19:00:13.546Z,6.70
2019-02-28T19:02:54.470Z,6.60
2019-02-28T19:05:34.952Z,6.60
2019-02-28T19:08:16.058Z,6.60
2019-02-28T19:10:57.322Z,6.60
2019-02-28T19:13:38.369Z,6.60
2019-02-28T19:16:19.419Z,6.70
2019-02-28T19:19:00.486Z,6.70
2019-02-28T19:21:40.893Z,6.70
2019-02-28T19:24:20.111Z,6.70
2019-02-28T19:27:08.010Z,6.70
2019-02-28T19:29:55.940Z,6.70
2019-02-28T19:32:36.748Z,6.70
2019-02-28T19:35:17.527Z,6.70
2019-02-28T19:37:58.757Z,6.80
2019-02-28T19:40:40.045Z,6.80
2019-02-28T19:43:20.900Z,6.80
2019-02-28T19:46:01.853Z,6.90
2019-02-28T19:48:42.417Z,6.90
2019-02-28T19:51:23.166Z,6.90
2019-02-28T19:54:04.192Z,6.90
2019-02-28T19:56:45.925Z,6.90
2019-02-28T19:59:26.809Z,6.90
2019-02-28T20:02:07.736Z,6.80
2019-02-28T20:04:48.922Z,6.80
2019-02-28T20:07:29.697Z,6.80
2019-02-28T20:10:10.540Z,6.70
2019-02-28T20:12:51.417Z,6.70
2019-02-28T20:15:23.260Z,6.70
2019-02-28T20:17:52.198Z,6.80
2019-02-28T20:20:25.902Z,6.70
2019-02-28T20:22:54.617Z,6.70
2019-02-28T20:25:42.629Z,6.80
2019-02-28T20:28:30.593Z,6.70
2019-02-28T20:34:09.723Z,6.70
2019-02-28T20:37:09.294Z,6.70
2019-02-28T20:39:47.593Z,6.70
2019-02-28T20:45:30.410Z,6.70
2019-02-28T20:54:26.596Z,6.60
2019-02-28T20:57:14.504Z,6.60
2019-02-28T21:00:02.796Z,6.60
2019-02-28T21:08:55.010Z,6.50
2019-02-28T21:11:13.345Z,6.50
2019-02-28T21:14:01.288Z,6.40
2019-02-28T21:16:49.246Z,6.40
2019-02-28T21:19:37.142Z,6.30
2019-02-28T21:22:25.080Z,6.30
2019-02-28T21:25:13.685Z,6.30
2019-02-28T21:28:01.615Z,6.30
2019-02-28T21:33:43.300Z,6.30
2019-02-28T21:36:23.710Z,6.20
2019-02-28T21:39:04.569Z,6.20
2019-02-28T21:41:44.993Z,6.20
2019-02-28T21:44:26.262Z,6.20
2019-02-28T21:47:07.060Z,6.20
2019-02-28T21:49:48.217Z,6.20
2019-02-28T21:52:28.850Z,6.30
2019-02-28T21:55:09.427Z,6.30
2019-02-28T21:57:50.464Z,6.40
2019-02-28T22:00:31.042Z,6.40
2019-02-28T22:03:11.424Z,6.40
2019-02-28T22:05:52.472Z,6.40
2019-02-28T22:08:33.255Z,6.30
2019-02-28T22:11:14.075Z,6.40
2019-02-28T22:13:55.379Z,6.30
2019-02-28T22:16:36.016Z,6.40
2019-02-28T22:19:16.791Z,6.40
2019-02-28T22:21:58.058Z,6.30
2019-02-28T22:27:20.919Z,6.30
2019-02-28T22:30:02.941Z,6.20
2019-02-28T22:32:45.741Z,6.20
2019-02-28T22:35:27.756Z,6.20
2019-02-28T22:38:08.969Z,6.20
2019-02-28T22:40:50.145Z,6.30
2019-02-28T22:43:30.738Z,6.30
2019-02-28T22:46:11.085Z,6.20
2019-02-28T22:48:52.053Z,6.20
2019-02-28T22:51:33.360Z,6.20
2019-02-28T22:54:14.408Z,6.10
2019-02-28T22:56:55.708Z,6.10
2019-02-28T22:59:36.351Z,6.10
2019-02-28T23:02:15.407Z,6.20
2019-02-28T23:05:03.509Z,6.20
2019-02-28T23:07:51.408Z,6.30
2019-02-28T23:10:39.345Z,6.20
2019-02-28T23:13:27.240Z,6.20
2019-02-28T23:19:08.915Z,6.20
2019-02-28T23:21:56.878Z,6.30
2019-02-28T23:24:44.774Z,6.30
2019-02-28T23:27:32.705Z,6.30
2019-02-28T23:30:16.407Z,6.30
2019-02-28T23:32:51.060Z,6.30
2019-02-28T23:35:40.746Z,6.20
2019-02-28T23:38:21.882Z,6.20
2019-02-28T23:41:02.653Z,6.20
2019-02-28T23:43:43.913Z,6.10
2019-02-28T23:46:24.548Z,6.10
2019-02-28T23:49:05.388Z,6.00
2019-02-28T23:51:46.069Z,6.00
2019-02-28T23:54:26.546Z,6.00
2019-02-28T23:57:07.554Z,6.00
2019-02-28T23:59:49.140Z,6.10
